< < Back
Terminal Aerodrome Forecast


Current Version              Previous Versions:   1  2  3  4  5  6  7  8  9  

Terminal Aerodrome Forecast

250
FTUS44 KMRX 010520
TAFTYS
TAF
KTYS 010520Z 0106/0206 03003KT P6SM SKC
     FM011500 01007KT P6SM FEW060
     FM020200 00000KT P6SM SKC=

Latest METAR

302
SAUS80 KWBC 012000 RRF
MTRTYS
METAR KTYS 011953Z 33007KT 10SM SCT065 32/14 A2998 RMK AO2 SLP142
T03170139


USA.gov is the U.S. government's official web portal to all federal, state and local government web resources and services.